createdAt,value
2018-12-26T00:02:09.903Z,0.40
2018-12-26T00:04:41.694Z,0.40
2018-12-26T00:07:13.472Z,0.40
2018-12-26T00:09:45.211Z,0.40
2018-12-26T00:12:17.167Z,0.40
2018-12-26T00:14:49.026Z,0.40
2018-12-26T00:17:20.723Z,0.40
2018-12-26T00:19:52.569Z,0.40
2018-12-26T00:22:24.485Z,0.40
2018-12-26T00:24:56.313Z,0.40
2018-12-26T00:27:28.049Z,0.30
2018-12-26T00:29:59.771Z,0.30
2018-12-26T00:32:31.659Z,0.30
2018-12-26T00:35:03.465Z,0.30
2018-12-26T00:37:35.309Z,0.30
2018-12-26T00:40:07.106Z,0.20
2018-12-26T00:42:38.959Z,0.20
2018-12-26T00:45:10.824Z,0.20
2018-12-26T00:47:42.531Z,0.20
2018-12-26T00:50:14.332Z,0.20
2018-12-26T00:52:46.022Z,0.10
2018-12-26T00:55:17.715Z,0.00
2018-12-26T00:57:49.428Z,0.00
2018-12-26T01:00:21.116Z,0.00
2018-12-26T01:02:52.894Z,0.00
2018-12-26T01:05:24.654Z,0.00
2018-12-26T01:07:56.372Z,-0.10
2018-12-26T01:10:28.210Z,-0.10
2018-12-26T01:12:59.909Z,-0.10
2018-12-26T01:15:31.704Z,-0.10
2018-12-26T01:18:03.414Z,-0.10
2018-12-26T01:20:35.163Z,-0.20
2018-12-26T01:23:06.860Z,-0.10
2018-12-26T01:25:38.671Z,-0.10
2018-12-26T01:28:10.467Z,-0.10
2018-12-26T01:30:42.195Z,-0.10
2018-12-26T01:33:13.887Z,-0.10
2018-12-26T01:35:45.604Z,-0.10
2018-12-26T01:38:17.272Z,-0.20
2018-12-26T01:40:49.014Z,-0.20
2018-12-26T01:43:20.736Z,-0.20
2018-12-26T01:45:52.453Z,-0.20
2018-12-26T01:48:24.235Z,-0.20
2018-12-26T01:50:56.036Z,-0.20
2018-12-26T01:53:27.722Z,-0.20
2018-12-26T01:55:59.510Z,-0.20
2018-12-26T01:58:31.330Z,-0.30
2018-12-26T02:01:03.069Z,-0.20
2018-12-26T02:03:34.811Z,-0.20
2018-12-26T02:06:06.671Z,-0.30
2018-12-26T02:08:38.519Z,-0.30
2018-12-26T02:11:10.269Z,-0.30
2018-12-26T02:13:42.027Z,-0.40
2018-12-26T02:16:13.836Z,-0.40
2018-12-26T02:18:45.569Z,-0.40
2018-12-26T02:21:17.320Z,-0.40
2018-12-26T02:23:49.142Z,-0.40
2018-12-26T02:26:20.936Z,-0.40
2018-12-26T02:28:52.728Z,-0.50
2018-12-26T02:31:24.459Z,-0.50
2018-12-26T02:33:56.217Z,-0.50
2018-12-26T02:36:28.049Z,-0.50
2018-12-26T02:38:59.822Z,-0.50
2018-12-26T02:41:31.567Z,-0.50
2018-12-26T02:44:03.427Z,-0.50
2018-12-26T02:46:35.100Z,-0.50
2018-12-26T02:49:06.822Z,-0.40
2018-12-26T02:51:38.519Z,-0.50
2018-12-26T02:54:10.435Z,-0.50
2018-12-26T02:56:47.822Z,-0.50
2018-12-26T02:59:15.615Z,-0.50
2018-12-26T03:01:47.349Z,-0.50
2018-12-26T03:04:19.053Z,-0.50
2018-12-26T03:06:50.931Z,-0.60
2018-12-26T03:09:22.777Z,-0.60
2018-12-26T03:11:54.546Z,-0.60
2018-12-26T03:14:26.288Z,-0.60
2018-12-26T03:16:58.008Z,-0.60
2018-12-26T03:19:29.795Z,-0.60
2018-12-26T03:22:01.497Z,-0.60
2018-12-26T03:24:33.307Z,-0.60
2018-12-26T03:27:05.176Z,-0.60
2018-12-26T03:29:37.113Z,-0.60
2018-12-26T03:32:08.894Z,-0.60
2018-12-26T03:34:40.698Z,-0.60
2018-12-26T03:37:13.142Z,-0.60
2018-12-26T03:39:44.892Z,-0.70
2018-12-26T03:42:16.622Z,-0.70
2018-12-26T03:44:49.737Z,-0.70
2018-12-26T03:47:21.843Z,-0.80
2018-12-26T03:49:53.664Z,-0.70
2018-12-26T03:52:25.655Z,-0.70
2018-12-26T03:54:57.476Z,-0.80
2018-12-26T03:57:29.168Z,-0.80
2018-12-26T04:00:00.880Z,-0.80
2018-12-26T04:02:32.640Z,-0.80
2018-12-26T04:05:04.459Z,-0.80
2018-12-26T04:07:36.424Z,-0.80
2018-12-26T04:10:08.146Z,-0.90
2018-12-26T04:12:39.824Z,-0.80
2018-12-26T04:15:11.590Z,-0.90
2018-12-26T04:17:43.426Z,-0.80
2018-12-26T04:20:15.222Z,-0.80
2018-12-26T04:22:47.039Z,-0.70
2018-12-26T04:25:18.740Z,-0.70
2018-12-26T04:27:50.555Z,-0.70
2018-12-26T04:30:22.316Z,-0.80
2018-12-26T04:32:54.019Z,-0.90
2018-12-26T04:35:25.809Z,-0.90
2018-12-26T04:37:57.588Z,-0.90
2018-12-26T04:40:29.325Z,-0.90
2018-12-26T04:43:01.131Z,-0.90
2018-12-26T04:45:32.875Z,-0.90
2018-12-26T04:48:04.800Z,-0.90
2018-12-26T04:50:36.612Z,-0.90
2018-12-26T04:53:08.356Z,-0.90
2018-12-26T04:55:40.099Z,-0.90
2018-12-26T04:58:11.842Z,-0.90
2018-12-26T05:00:43.524Z,-0.90
2018-12-26T05:03:15.288Z,-0.90
2018-12-26T05:05:47.040Z,-0.90
2018-12-26T05:08:18.814Z,-0.90
2018-12-26T05:10:50.557Z,-0.90
2018-12-26T05:13:22.375Z,-0.90
2018-12-26T05:15:54.205Z,-0.90
2018-12-26T05:18:26.013Z,-0.90
2018-12-26T05:20:57.797Z,-0.90
2018-12-26T05:23:29.565Z,-0.80
2018-12-26T05:26:01.352Z,-0.80
2018-12-26T05:28:33.208Z,-0.80
2018-12-26T05:31:05.066Z,-0.80
2018-12-26T05:33:36.901Z,-0.80
2018-12-26T05:36:08.664Z,-0.80
2018-12-26T05:38:40.377Z,-0.80
2018-12-26T05:41:12.143Z,-0.80
2018-12-26T05:43:43.999Z,-0.80
2018-12-26T05:46:15.781Z,-0.80
2018-12-26T05:48:47.516Z,-0.70
2018-12-26T05:51:19.223Z,-0.70
2018-12-26T05:53:51.058Z,-0.70
2018-12-26T05:56:22.835Z,-0.70
2018-12-26T05:58:54.622Z,-0.60
2018-12-26T06:01:26.360Z,-0.70
2018-12-26T06:03:58.113Z,-0.70
2018-12-26T06:06:29.923Z,-0.70
2018-12-26T06:09:01.751Z,-0.70
2018-12-26T06:11:33.971Z,-0.80
2018-12-26T06:14:05.645Z,-0.80
2018-12-26T06:16:37.402Z,-0.80
2018-12-26T06:19:09.095Z,-0.80
2018-12-26T06:21:40.861Z,-0.80
2018-12-26T06:24:12.656Z,-0.80
2018-12-26T06:26:44.425Z,-0.80
2018-12-26T06:29:16.191Z,-0.80
2018-12-26T06:31:47.910Z,-0.90
2018-12-26T06:34:19.626Z,-0.80
2018-12-26T06:36:51.414Z,-0.90
2018-12-26T06:39:23.204Z,-0.80
2018-12-26T06:41:55.022Z,-0.80
2018-12-26T06:44:26.866Z,-0.80
2018-12-26T06:46:58.674Z,-0.80
2018-12-26T06:49:30.422Z,-0.80
2018-12-26T06:52:02.180Z,-0.80
2018-12-26T06:54:33.994Z,-0.80
2018-12-26T06:57:05.797Z,-0.80
2018-12-26T06:59:37.713Z,-0.90
2018-12-26T07:02:09.523Z,-0.80
2018-12-26T07:04:41.304Z,-0.80
2018-12-26T07:07:13.023Z,-0.70
2018-12-26T07:09:44.700Z,-0.70
2018-12-26T07:12:16.483Z,-0.70
2018-12-26T07:14:48.291Z,-0.60
2018-12-26T07:17:20.063Z,-0.60
2018-12-26T07:19:51.835Z,-0.60
2018-12-26T07:22:23.708Z,-0.60
2018-12-26T07:24:55.459Z,-0.50
2018-12-26T07:27:27.166Z,-0.60
2018-12-26T07:29:59.024Z,-0.60
2018-12-26T07:32:30.865Z,-0.60
2018-12-26T07:35:02.622Z,-0.60
2018-12-26T07:37:34.524Z,-0.60
2018-12-26T07:40:06.240Z,-0.70
2018-12-26T07:42:38.033Z,-0.70
2018-12-26T07:45:09.849Z,-0.70
2018-12-26T07:47:41.671Z,-0.70
2018-12-26T07:50:13.474Z,-0.70
2018-12-26T07:52:45.191Z,-0.70
2018-12-26T07:55:16.983Z,-0.70
2018-12-26T07:57:48.771Z,-0.70
2018-12-26T08:00:20.566Z,-0.70
2018-12-26T08:02:52.357Z,-0.70
2018-12-26T08:05:24.147Z,-0.60
2018-12-26T08:07:55.988Z,-0.60
2018-12-26T08:10:27.698Z,-0.60
2018-12-26T08:12:59.479Z,-0.50
2018-12-26T08:15:31.186Z,-0.50
2018-12-26T08:18:02.916Z,-0.40
2018-12-26T08:20:34.732Z,-0.30
2018-12-26T08:23:06.488Z,-0.20
2018-12-26T08:25:38.347Z,-0.10
2018-12-26T08:28:10.063Z,0.00
2018-12-26T08:30:41.823Z,0.10
2018-12-26T08:33:13.557Z,0.30
2018-12-26T08:35:45.425Z,0.40
2018-12-26T08:38:17.248Z,0.60
2018-12-26T08:40:49.120Z,0.80
2018-12-26T08:43:20.876Z,1.00
2018-12-26T08:45:52.603Z,1.20
2018-12-26T08:48:24.442Z,1.40
2018-12-26T08:50:56.142Z,1.60
2018-12-26T08:53:27.856Z,1.60
2018-12-26T08:55:59.651Z,1.70
2018-12-26T08:58:35.320Z,1.70
2018-12-26T09:01:04.926Z,1.80
2018-12-26T09:03:36.677Z,1.80
2018-12-26T09:06:08.576Z,1.90
2018-12-26T09:08:40.404Z,1.90
2018-12-26T09:11:12.201Z,2.00
2018-12-26T09:13:43.997Z,2.10
2018-12-26T09:16:15.829Z,2.20
2018-12-26T09:18:47.664Z,2.40
2018-12-26T09:21:19.483Z,2.50
2018-12-26T09:23:51.279Z,2.50
2018-12-26T09:26:22.995Z,2.60
2018-12-26T09:28:54.713Z,2.70
2018-12-26T09:31:26.390Z,2.70
2018-12-26T09:33:58.105Z,2.80
2018-12-26T09:36:29.855Z,2.80
2018-12-26T09:39:01.648Z,2.90
2018-12-26T09:41:33.428Z,2.90
2018-12-26T09:44:05.314Z,3.10
2018-12-26T09:46:37.091Z,3.20
2018-12-26T09:49:08.809Z,3.40
2018-12-26T09:51:40.539Z,3.50
2018-12-26T09:54:12.347Z,3.60
2018-12-26T09:56:44.100Z,3.70
2018-12-26T09:59:15.851Z,3.90
2018-12-26T10:01:47.617Z,4.10
2018-12-26T10:04:19.451Z,4.20
2018-12-26T10:06:51.269Z,4.30
2018-12-26T10:09:23.064Z,4.30
2018-12-26T10:11:54.940Z,4.40
2018-12-26T10:14:26.684Z,4.40
2018-12-26T10:16:58.408Z,4.40
2018-12-26T10:19:30.162Z,4.40
2018-12-26T10:22:01.876Z,4.40
2018-12-26T10:24:33.594Z,4.30
2018-12-26T10:27:05.394Z,4.30
2018-12-26T10:29:40.780Z,4.40
2018-12-26T10:32:12.647Z,4.40
2018-12-26T10:34:44.428Z,4.50
2018-12-26T10:37:16.219Z,4.60
2018-12-26T10:39:48.128Z,4.70
2018-12-26T10:42:19.919Z,4.80
2018-12-26T10:44:51.743Z,5.00
2018-12-26T10:47:23.517Z,5.00
2018-12-26T10:49:55.300Z,5.10
2018-12-26T10:52:27.029Z,5.10
2018-12-26T10:54:58.712Z,5.20
2018-12-26T10:57:30.509Z,5.20
2018-12-26T11:00:02.418Z,5.10
2018-12-26T11:02:34.710Z,5.30
2018-12-26T11:05:07.348Z,5.20
2018-12-26T11:07:39.058Z,5.30
2018-12-26T11:10:10.861Z,5.30
2018-12-26T11:12:42.794Z,5.30
2018-12-26T11:15:14.614Z,5.20
2018-12-26T11:17:46.373Z,5.30
2018-12-26T11:20:18.120Z,5.20
2018-12-26T11:22:49.962Z,5.20
2018-12-26T11:25:21.747Z,5.20
2018-12-26T11:27:53.741Z,5.30
2018-12-26T11:30:25.674Z,5.30
2018-12-26T11:32:57.465Z,5.30
2018-12-26T11:35:29.228Z,5.30
2018-12-26T11:38:00.969Z,5.30
2018-12-26T11:40:32.809Z,5.30
2018-12-26T11:43:04.588Z,5.30
2018-12-26T11:45:36.502Z,5.30
2018-12-26T11:48:08.270Z,5.40
2018-12-26T11:50:39.993Z,5.40
2018-12-26T11:53:11.706Z,5.50
2018-12-26T11:55:43.499Z,5.50
2018-12-26T11:58:15.205Z,5.60
2018-12-26T12:00:47.023Z,5.60
2018-12-26T12:03:18.729Z,5.70
2018-12-26T12:05:50.461Z,5.70
2018-12-26T12:08:22.179Z,5.70
2018-12-26T12:10:53.982Z,5.80
2018-12-26T12:13:25.683Z,5.80
2018-12-26T12:15:57.396Z,5.90
2018-12-26T12:18:29.079Z,6.00
2018-12-26T12:21:00.791Z,5.80
2018-12-26T12:23:32.532Z,5.70
2018-12-26T12:26:04.354Z,5.40
2018-12-26T12:28:36.128Z,5.30
2018-12-26T12:31:07.888Z,5.20
2018-12-26T12:33:39.692Z,5.20
2018-12-26T12:36:13.041Z,5.30
2018-12-26T12:38:45.008Z,5.40
2018-12-26T12:41:16.721Z,5.40
2018-12-26T12:43:48.834Z,5.50
2018-12-26T12:46:20.673Z,5.60
2018-12-26T12:48:52.552Z,5.60
2018-12-26T12:51:24.272Z,5.70
2018-12-26T12:53:56.007Z,5.80
2018-12-26T12:56:27.816Z,5.80
2018-12-26T12:58:59.565Z,5.80
2018-12-26T13:01:31.376Z,5.90
2018-12-26T13:04:03.383Z,6.00
2018-12-26T13:06:35.146Z,6.10
2018-12-26T13:09:08.076Z,6.20
2018-12-26T13:11:39.845Z,6.30
2018-12-26T13:14:11.539Z,6.30
2018-12-26T13:16:43.249Z,6.40
2018-12-26T13:19:15.061Z,6.30
2018-12-26T13:21:46.842Z,6.30
2018-12-26T13:24:18.544Z,6.30
2018-12-26T13:26:50.228Z,6.30
2018-12-26T13:29:21.988Z,6.30
2018-12-26T13:31:53.780Z,6.30
2018-12-26T13:34:25.501Z,6.30
2018-12-26T13:36:57.220Z,6.30
2018-12-26T13:39:30.368Z,6.30
2018-12-26T13:42:02.232Z,6.20
2018-12-26T13:44:34.015Z,6.20
2018-12-26T13:47:05.826Z,6.10
2018-12-26T13:49:37.566Z,6.10
2018-12-26T13:52:09.352Z,6.00
2018-12-26T13:54:41.087Z,6.00
2018-12-26T13:57:12.795Z,6.00
2018-12-26T13:59:44.556Z,6.00
2018-12-26T14:02:16.347Z,6.00
2018-12-26T14:04:48.207Z,5.90
2018-12-26T14:07:20.030Z,5.90
2018-12-26T14:09:51.867Z,5.80
2018-12-26T14:12:23.562Z,5.80
2018-12-26T14:14:55.236Z,5.80
2018-12-26T14:17:26.946Z,5.70
2018-12-26T14:19:58.736Z,5.70
2018-12-26T14:22:30.446Z,5.70
2018-12-26T14:25:02.271Z,5.70
2018-12-26T14:27:34.043Z,5.60
2018-12-26T14:30:11.427Z,5.60
2018-12-26T14:32:41.409Z,5.50
2018-12-26T14:35:13.247Z,5.50
2018-12-26T14:37:45.065Z,5.40
2018-12-26T14:40:16.853Z,5.40
2018-12-26T14:42:48.513Z,5.40
2018-12-26T14:45:20.265Z,5.40
2018-12-26T14:47:51.954Z,5.30
2018-12-26T14:50:23.696Z,5.30
2018-12-26T14:52:55.417Z,5.20
2018-12-26T14:55:27.166Z,5.20
2018-12-26T14:57:58.936Z,5.10
2018-12-26T15:00:30.701Z,5.10
2018-12-26T15:03:02.472Z,5.00
2018-12-26T15:05:34.466Z,5.00
2018-12-26T15:08:06.296Z,4.90
2018-12-26T15:10:38.068Z,4.90
2018-12-26T15:13:09.788Z,4.80
2018-12-26T15:15:41.610Z,4.80
2018-12-26T15:18:13.445Z,4.70
2018-12-26T15:20:45.271Z,4.70
2018-12-26T15:23:17.095Z,4.60
2018-12-26T15:25:48.861Z,4.60
2018-12-26T15:28:20.631Z,4.50
2018-12-26T15:30:52.355Z,4.40
2018-12-26T15:33:24.135Z,4.40
2018-12-26T15:35:55.832Z,4.40
2018-12-26T15:38:27.605Z,4.30
2018-12-26T15:40:59.428Z,4.30
2018-12-26T15:43:31.267Z,4.30
2018-12-26T15:46:02.971Z,4.20
2018-12-26T15:48:34.794Z,4.20
2018-12-26T15:51:06.569Z,4.10
2018-12-26T15:53:39.070Z,4.10
2018-12-26T15:56:10.905Z,4.10
2018-12-26T15:58:42.629Z,4.00
2018-12-26T16:01:14.408Z,4.00
2018-12-26T16:03:46.169Z,3.90
2018-12-26T16:06:18.013Z,3.80
2018-12-26T16:08:49.812Z,3.80
2018-12-26T16:11:21.611Z,3.70
2018-12-26T16:13:53.437Z,3.60
2018-12-26T16:16:25.145Z,3.50
2018-12-26T16:18:56.971Z,3.50
2018-12-26T16:21:28.749Z,3.40
2018-12-26T16:24:00.546Z,3.30
2018-12-26T16:26:32.243Z,3.30
2018-12-26T16:29:04.098Z,3.30
2018-12-26T16:31:35.784Z,3.30
2018-12-26T16:34:07.566Z,3.30
2018-12-26T16:36:39.280Z,3.30
2018-12-26T16:39:11.233Z,3.30
2018-12-26T16:41:43.118Z,3.20
2018-12-26T16:44:14.851Z,3.20
2018-12-26T16:46:46.580Z,3.20
2018-12-26T16:49:21.436Z,3.20
2018-12-26T16:51:54.198Z,3.10
2018-12-26T16:54:26.009Z,3.10
2018-12-26T16:56:57.832Z,3.00
2018-12-26T16:59:29.693Z,3.00
2018-12-26T17:02:01.388Z,3.00
2018-12-26T17:04:33.721Z,2.90
2018-12-26T17:07:06.273Z,2.90
2018-12-26T17:09:38.032Z,2.80
2018-12-26T17:12:09.803Z,2.80
2018-12-26T17:14:41.473Z,2.70
2018-12-26T17:17:13.330Z,2.70
2018-12-26T17:19:45.122Z,2.60
2018-12-26T17:22:16.846Z,2.60
2018-12-26T17:24:48.543Z,2.50
2018-12-26T17:27:20.242Z,2.50
2018-12-26T17:29:51.932Z,2.40
2018-12-26T17:32:23.643Z,2.40
2018-12-26T17:34:55.413Z,2.40
2018-12-26T17:37:27.219Z,2.30
2018-12-26T17:39:59.028Z,2.30
2018-12-26T17:42:30.783Z,2.30
2018-12-26T17:45:02.594Z,2.30
2018-12-26T17:47:34.333Z,2.20
2018-12-26T17:50:41.031Z,2.20
2018-12-26T17:53:16.882Z,2.20
2018-12-26T17:55:59.275Z,2.20
2018-12-26T17:58:34.038Z,2.10
2018-12-26T18:01:41.599Z,2.10
2018-12-26T18:04:13.345Z,2.10
2018-12-26T18:06:45.271Z,2.10
2018-12-26T18:09:17.086Z,2.10
2018-12-26T18:11:51.498Z,2.10
2018-12-26T18:14:22.280Z,2.10
2018-12-26T18:16:54.143Z,2.10
2018-12-26T18:19:26.061Z,2.10
2018-12-26T18:21:57.812Z,2.10
2018-12-26T18:24:29.592Z,2.10
2018-12-26T18:27:01.366Z,2.10
2018-12-26T18:29:33.134Z,2.10
2018-12-26T18:32:05.018Z,2.10
2018-12-26T18:34:36.743Z,2.00
2018-12-26T18:37:08.575Z,2.00
2018-12-26T18:39:40.387Z,2.00
2018-12-26T18:42:12.100Z,2.00
2018-12-26T18:44:43.907Z,2.00
2018-12-26T18:47:15.815Z,1.90
2018-12-26T18:49:47.530Z,1.90
2018-12-26T18:52:19.278Z,1.90
2018-12-26T18:54:51.111Z,1.90
2018-12-26T18:57:22.987Z,1.90
2018-12-26T18:59:56.029Z,1.90
2018-12-26T19:02:27.794Z,1.90
2018-12-26T19:04:59.530Z,1.80
2018-12-26T19:07:31.234Z,1.80
2018-12-26T19:10:03.037Z,1.90
2018-12-26T19:12:34.733Z,1.80
2018-12-26T19:15:07.739Z,1.80
2018-12-26T19:17:39.443Z,1.80
2018-12-26T19:20:11.815Z,1.80
2018-12-26T19:22:43.576Z,1.80
2018-12-26T19:25:15.415Z,1.80
2018-12-26T19:27:47.148Z,1.80
2018-12-26T19:30:18.997Z,1.90
2018-12-26T19:32:50.740Z,1.80
2018-12-26T19:35:22.555Z,1.80
2018-12-26T19:37:54.389Z,1.90
2018-12-26T19:40:26.122Z,1.80
2018-12-26T19:42:57.818Z,1.90
2018-12-26T19:45:29.520Z,1.80
2018-12-26T19:48:01.355Z,1.80
2018-12-26T19:50:33.038Z,1.80
2018-12-26T19:53:04.826Z,1.80
2018-12-26T19:55:36.551Z,1.80
2018-12-26T19:58:08.451Z,1.80
2018-12-26T20:00:40.318Z,1.80
2018-12-26T20:03:12.088Z,1.80
2018-12-26T20:05:43.867Z,1.80
2018-12-26T20:08:15.615Z,1.80
2018-12-26T20:10:47.451Z,1.80
2018-12-26T20:13:19.285Z,1.80
2018-12-26T20:15:51.084Z,1.80
2018-12-26T20:18:22.918Z,1.80
2018-12-26T20:20:54.683Z,1.80
2018-12-26T20:23:26.561Z,1.80
2018-12-26T20:25:58.293Z,1.80
2018-12-26T20:28:30.077Z,1.80
2018-12-26T20:31:01.816Z,1.80
2018-12-26T20:33:33.487Z,1.80
2018-12-26T20:36:05.194Z,1.70
2018-12-26T20:38:37.030Z,1.80
2018-12-26T20:41:08.765Z,1.70
2018-12-26T20:43:40.497Z,1.70
2018-12-26T20:46:12.238Z,1.70
2018-12-26T20:48:43.987Z,1.70
2018-12-26T20:51:15.808Z,1.70
2018-12-26T20:53:47.637Z,1.60
2018-12-26T20:56:19.364Z,1.60
2018-12-26T20:58:51.192Z,1.60
2018-12-26T21:01:22.910Z,1.60
2018-12-26T21:03:54.672Z,1.60
2018-12-26T21:06:26.508Z,1.50
2018-12-26T21:08:58.369Z,1.50
2018-12-26T21:11:30.217Z,1.50
2018-12-26T21:14:01.992Z,1.50
2018-12-26T21:16:33.819Z,1.50
2018-12-26T21:19:05.602Z,1.40
2018-12-26T21:21:37.455Z,1.50
2018-12-26T21:24:09.214Z,1.40
2018-12-26T21:26:40.971Z,1.40
2018-12-26T21:29:12.754Z,1.40
2018-12-26T21:31:44.563Z,1.40
2018-12-26T21:34:16.235Z,1.40
2018-12-26T21:36:48.008Z,1.30
2018-12-26T21:39:19.784Z,1.30
2018-12-26T21:41:51.634Z,1.30
2018-12-26T21:44:23.369Z,1.30
2018-12-26T21:46:55.070Z,1.30
2018-12-26T21:49:26.879Z,1.30
2018-12-26T21:51:58.667Z,1.20
2018-12-26T21:54:30.507Z,1.20
2018-12-26T21:57:02.221Z,1.20
2018-12-26T21:59:34.003Z,1.20
2018-12-26T22:02:05.816Z,1.20
2018-12-26T22:04:37.643Z,1.20
2018-12-26T22:07:09.402Z,1.20
2018-12-26T22:09:41.142Z,1.20
2018-12-26T22:12:12.957Z,1.20
2018-12-26T22:14:44.738Z,1.20
2018-12-26T22:17:16.561Z,1.20
2018-12-26T22:19:48.271Z,1.20
2018-12-26T22:22:19.985Z,1.20
2018-12-26T22:24:51.698Z,1.20
2018-12-26T22:27:23.429Z,1.20
2018-12-26T22:29:55.145Z,1.20
2018-12-26T22:32:30.692Z,1.20
2018-12-26T22:35:00.462Z,1.20
2018-12-26T22:37:32.194Z,1.20
2018-12-26T22:40:04.159Z,1.20
2018-12-26T22:42:35.906Z,1.20
2018-12-26T22:45:07.617Z,1.20
2018-12-26T22:47:39.309Z,1.20
2018-12-26T22:50:11.080Z,1.20
2018-12-26T22:52:42.829Z,1.20
2018-12-26T22:55:14.595Z,1.10
2018-12-26T22:57:46.381Z,1.10
2018-12-26T23:00:21.368Z,1.10
2018-12-26T23:02:53.101Z,1.10
2018-12-26T23:05:24.862Z,1.10
2018-12-26T23:07:56.646Z,1.10
2018-12-26T23:10:28.554Z,1.10
2018-12-26T23:13:00.384Z,1.10
2018-12-26T23:15:32.122Z,1.10
2018-12-26T23:18:03.951Z,1.10
2018-12-26T23:20:35.660Z,1.10
2018-12-26T23:23:07.385Z,1.10
2018-12-26T23:25:39.176Z,1.10
2018-12-26T23:28:10.863Z,1.10
2018-12-26T23:30:42.540Z,1.10
2018-12-26T23:33:14.305Z,1.10
2018-12-26T23:35:46.015Z,1.10
2018-12-26T23:38:17.747Z,1.10
2018-12-26T23:40:49.491Z,1.10
2018-12-26T23:43:21.222Z,1.10
2018-12-26T23:45:52.987Z,1.00
2018-12-26T23:48:24.757Z,1.00
2018-12-26T23:50:56.526Z,1.00
2018-12-26T23:53:28.323Z,1.00
2018-12-26T23:55:59.992Z,1.00
2018-12-26T23:58:31.674Z,1.00
